WESTPORT MEDIA Westport In The Media

Enter your "Place, State", US Zip Code or ICAO:  

Nice, France

 Lat: 43.65N, Lon: 7.20E
ICAO Used: LFMN
Current Conditions
Updated: 8:30 PM GMT1 SAT OCT 25 2014
Sun & Moon Information
Mostly Clear
Mostly Clear
Temp: 16°C
Humidity: 63%
Wind Speed: NNW 7 MPH
Barometer: 1019 mb
Dewpoint: 9°C
Heat Index: 16°C
Wind Chill: 15°C
Civil Twilight: 6:26 AM GMT1 Moon Phase:
Waxing Crescent Moon
Sunrise: 6:56 AM GMT1
Sunset: 5:33 PM GMT1
Civil Twilight: 6:02 PM GMT1
Forecast for Nice, France:
(Forecast based on TAF for )
0100 AM GMT1 SAT OCT 25 2014
  
MORNING AFTERNOON EVENING OVERNIGHT
Partly
Cloudy
Partly
Cloudy
Partly
Cloudy
Partly
Cloudy
ZoneCast:
Dated: 0100 AM GMT1 SAT OCT 25 2014
Morning...Becoming partly cloudy with winds from the southsoutheast at 12 mph.

Afternoon...Partly cloudy with winds from the southsoutheast at 12 mph.

Evening...Partly cloudy with winds from the southsoutheast at 12 mph.

Overnight...Partly cloudy with winds from the northnorthwest at 12 mph.

Original Encoded TAF:
Dated: 0100 AM GMT1 SAT OCT 25 2014
TAF LFMN 251700Z 2518/2624 34010KT 9999 FEW025 
     TEMPO 2518/2607 BKN020 
     BECMG 2609/2611 16010KT FEW040 
     BECMG 2617/2619 34010KT FEW020